sensor_id;sensor_type;location;lat;lon;timestamp;P1;durP1;ratioP1;P2;durP2;ratioP2
53010;SDS011;42803;55.762;38.084;2023-09-18T00:00:30;30.60;;;16.80;;
53010;SDS011;42803;55.762;38.084;2023-09-18T00:03:01;36.10;;;17.98;;
53010;SDS011;42803;55.762;38.084;2023-09-18T00:05:31;33.75;;;17.73;;
53010;SDS011;42803;55.762;38.084;2023-09-18T00:08:00;33.80;;;17.90;;
53010;SDS011;42803;55.762;38.084;2023-09-18T00:10:30;33.22;;;18.23;;
53010;SDS011;42803;55.762;38.084;2023-09-18T00:12:59;35.63;;;17.90;;
53010;SDS011;42803;55.762;38.084;2023-09-18T00:15:28;28.33;;;17.02;;
53010;SDS011;42803;55.762;38.084;2023-09-18T00:17:58;29.90;;;17.35;;
53010;SDS011;42803;55.762;38.084;2023-09-18T00:20:30;36.22;;;19.10;;
53010;SDS011;42803;55.762;38.084;2023-09-18T00:22:59;30.33;;;15.93;;
53010;SDS011;42803;55.762;38.084;2023-09-18T00:25:28;32.60;;;18.92;;
53010;SDS011;42803;55.762;38.084;2023-09-18T00:27:58;30.77;;;18.40;;
53010;SDS011;42803;55.762;38.084;2023-09-18T00:30:27;34.70;;;18.23;;
53010;SDS011;42803;55.762;38.084;2023-09-18T00:32:57;30.65;;;18.67;;
53010;SDS011;42803;55.762;38.084;2023-09-18T00:35:27;26.08;;;15.23;;
53010;SDS011;42803;55.762;38.084;2023-09-18T00:37:57;27.48;;;15.05;;
53010;SDS011;42803;55.762;38.084;2023-09-18T00:40:30;24.65;;;14.57;;
53010;SDS011;42803;55.762;38.084;2023-09-18T00:43:00;27.42;;;16.38;;
53010;SDS011;42803;55.762;38.084;2023-09-18T00:45:29;32.10;;;17.20;;
53010;SDS011;42803;55.762;38.084;2023-09-18T00:47:59;26.50;;;15.07;;
53010;SDS011;42803;55.762;38.084;2023-09-18T00:50:29;28.10;;;15.30;;
53010;SDS011;42803;55.762;38.084;2023-09-18T00:53:00;32.65;;;16.58;;
53010;SDS011;42803;55.762;38.084;2023-09-18T00:55:30;33.30;;;17.95;;
53010;SDS011;42803;55.762;38.084;2023-09-18T00:57:59;34.60;;;19.10;;
53010;SDS011;42803;55.762;38.084;2023-09-18T01:00:29;32.63;;;19.45;;
53010;SDS011;42803;55.762;38.084;2023-09-18T01:02:58;30.58;;;16.15;;
53010;SDS011;42803;55.762;38.084;2023-09-18T01:05:30;35.28;;;19.17;;
53010;SDS011;42803;55.762;38.084;2023-09-18T01:08:02;34.60;;;18.65;;
53010;SDS011;42803;55.762;38.084;2023-09-18T01:10:34;33.85;;;17.83;;
53010;SDS011;42803;55.762;38.084;2023-09-18T01:13:10;32.55;;;18.15;;
53010;SDS011;42803;55.762;38.084;2023-09-18T01:15:43;32.20;;;16.30;;
53010;SDS011;42803;55.762;38.084;2023-09-18T01:18:17;31.33;;;14.38;;
53010;SDS011;42803;55.762;38.084;2023-09-18T01:20:46;29.35;;;16.90;;
53010;SDS011;42803;55.762;38.084;2023-09-18T01:23:17;31.27;;;15.93;;
53010;SDS011;42803;55.762;38.084;2023-09-18T01:25:46;33.72;;;17.80;;
53010;SDS011;42803;55.762;38.084;2023-09-18T01:28:15;29.27;;;16.17;;
53010;SDS011;42803;55.762;38.084;2023-09-18T01:30:44;32.33;;;17.15;;
53010;SDS011;42803;55.762;38.084;2023-09-18T01:33:14;36.08;;;18.15;;
53010;SDS011;42803;55.762;38.084;2023-09-18T01:35:44;37.00;;;17.45;;
53010;SDS011;42803;55.762;38.084;2023-09-18T01:38:15;30.08;;;15.40;;
53010;SDS011;42803;55.762;38.084;2023-09-18T01:40:46;30.88;;;16.15;;
53010;SDS011;42803;55.762;38.084;2023-09-18T01:43:16;28.67;;;15.80;;
53010;SDS011;42803;55.762;38.084;2023-09-18T01:45:45;26.58;;;13.05;;
53010;SDS011;42803;55.762;38.084;2023-09-18T01:48:15;25.35;;;12.13;;
53010;SDS011;42803;55.762;38.084;2023-09-18T01:50:44;27.55;;;12.15;;
53010;SDS011;42803;55.762;38.084;2023-09-18T01:53:13;24.60;;;12.20;;
53010;SDS011;42803;55.762;38.084;2023-09-18T01:55:44;27.77;;;12.13;;
53010;SDS011;42803;55.762;38.084;2023-09-18T01:58:15;25.67;;;12.55;;
53010;SDS011;42803;55.762;38.084;2023-09-18T02:00:46;22.42;;;12.27;;
53010;SDS011;42803;55.762;38.084;2023-09-18T02:03:15;19.35;;;9.88;;
53010;SDS011;42803;55.762;38.084;2023-09-18T02:06:05;24.55;;;11.00;;
53010;SDS011;42803;55.762;38.084;2023-09-18T02:08:35;19.85;;;11.20;;
53010;SDS011;42803;55.762;38.084;2023-09-18T02:11:05;21.55;;;10.55;;
53010;SDS011;42803;55.762;38.084;2023-09-18T02:13:35;16.52;;;9.63;;
53010;SDS011;42803;55.762;38.084;2023-09-18T02:16:04;14.80;;;8.63;;
53010;SDS011;42803;55.762;38.084;2023-09-18T02:18:33;15.85;;;9.77;;
53010;SDS011;42803;55.762;38.084;2023-09-18T02:21:02;21.33;;;10.13;;
53010;SDS011;42803;55.762;38.084;2023-09-18T02:23:32;16.45;;;9.15;;
53010;SDS011;42803;55.762;38.084;2023-09-18T02:26:01;18.45;;;10.13;;
53010;SDS011;42803;55.762;38.084;2023-09-18T02:28:33;20.45;;;10.43;;
53010;SDS011;42803;55.762;38.084;2023-09-18T02:31:02;21.85;;;11.43;;
53010;SDS011;42803;55.762;38.084;2023-09-18T02:33:35;24.08;;;12.48;;
53010;SDS011;42803;55.762;38.084;2023-09-18T02:36:04;20.83;;;12.13;;
53010;SDS011;42803;55.762;38.084;2023-09-18T02:38:33;28.40;;;12.18;;
53010;SDS011;42803;55.762;38.084;2023-09-18T02:41:03;22.17;;;12.45;;
53010;SDS011;42803;55.762;38.084;2023-09-18T02:43:33;22.50;;;11.60;;
53010;SDS011;42803;55.762;38.084;2023-09-18T02:46:05;23.83;;;12.50;;
53010;SDS011;42803;55.762;38.084;2023-09-18T02:48:37;27.08;;;13.52;;
53010;SDS011;42803;55.762;38.084;2023-09-18T02:51:07;24.90;;;12.68;;
53010;SDS011;42803;55.762;38.084;2023-09-18T02:53:37;26.08;;;14.48;;
53010;SDS011;42803;55.762;38.084;2023-09-18T02:56:07;30.15;;;14.50;;
53010;SDS011;42803;55.762;38.084;2023-09-18T02:58:38;25.05;;;12.77;;
53010;SDS011;42803;55.762;38.084;2023-09-18T03:01:08;27.15;;;13.43;;
53010;SDS011;42803;55.762;38.084;2023-09-18T03:03:38;23.55;;;13.77;;
53010;SDS011;42803;55.762;38.084;2023-09-18T03:06:10;29.15;;;14.27;;
53010;SDS011;42803;55.762;38.084;2023-09-18T03:08:39;33.30;;;16.85;;
53010;SDS011;42803;55.762;38.084;2023-09-18T03:11:11;32.97;;;15.85;;
53010;SDS011;42803;55.762;38.084;2023-09-18T03:13:44;29.75;;;15.40;;
53010;SDS011;42803;55.762;38.084;2023-09-18T03:16:17;28.88;;;14.95;;
53010;SDS011;42803;55.762;38.084;2023-09-18T03:18:47;28.27;;;15.18;;
53010;SDS011;42803;55.762;38.084;2023-09-18T03:21:17;29.33;;;15.65;;
53010;SDS011;42803;55.762;38.084;2023-09-18T03:23:46;37.22;;;17.95;;
53010;SDS011;42803;55.762;38.084;2023-09-18T03:26:15;32.00;;;16.52;;
53010;SDS011;42803;55.762;38.084;2023-09-18T03:28:46;31.38;;;18.65;;
53010;SDS011;42803;55.762;38.084;2023-09-18T03:31:15;40.80;;;20.55;;
53010;SDS011;42803;55.762;38.084;2023-09-18T03:33:44;35.13;;;20.02;;
53010;SDS011;42803;55.762;38.084;2023-09-18T03:36:14;37.90;;;19.45;;
53010;SDS011;42803;55.762;38.084;2023-09-18T03:38:43;59.33;;;25.38;;
53010;SDS011;42803;55.762;38.084;2023-09-18T03:41:13;40.42;;;22.42;;
53010;SDS011;42803;55.762;38.084;2023-09-18T03:43:43;43.65;;;22.52;;
53010;SDS011;42803;55.762;38.084;2023-09-18T03:46:14;42.75;;;23.23;;
53010;SDS011;42803;55.762;38.084;2023-09-18T03:51:16;46.75;;;24.30;;
53010;SDS011;42803;55.762;38.084;2023-09-18T03:53:46;51.20;;;24.15;;
53010;SDS011;42803;55.762;38.084;2023-09-18T03:56:15;41.28;;;21.83;;
53010;SDS011;42803;55.762;38.084;2023-09-18T03:58:45;42.13;;;21.25;;
53010;SDS011;42803;55.762;38.084;2023-09-18T04:01:19;39.05;;;20.05;;
53010;SDS011;42803;55.762;38.084;2023-09-18T04:03:48;37.88;;;17.88;;
53010;SDS011;42803;55.762;38.084;2023-09-18T04:06:20;46.92;;;20.42;;
53010;SDS011;42803;55.762;38.084;2023-09-18T04:08:51;34.40;;;18.85;;
53010;SDS011;42803;55.762;38.084;2023-09-18T04:11:21;32.83;;;19.25;;
53010;SDS011;42803;55.762;38.084;2023-09-18T04:13:53;35.03;;;19.92;;
53010;SDS011;42803;55.762;38.084;2023-09-18T04:16:24;36.25;;;20.63;;
53010;SDS011;42803;55.762;38.084;2023-09-18T04:18:54;30.52;;;18.40;;
53010;SDS011;42803;55.762;38.084;2023-09-18T04:21:23;30.73;;;17.27;;
53010;SDS011;42803;55.762;38.084;2023-09-18T04:23:52;35.95;;;19.25;;
53010;SDS011;42803;55.762;38.084;2023-09-18T04:26:27;37.15;;;19.50;;
53010;SDS011;42803;55.762;38.084;2023-09-18T04:28:58;41.22;;;20.20;;
53010;SDS011;42803;55.762;38.084;2023-09-18T04:31:31;49.05;;;20.35;;
53010;SDS011;42803;55.762;38.084;2023-09-18T04:34:00;43.47;;;20.95;;
53010;SDS011;42803;55.762;38.084;2023-09-18T04:36:31;35.05;;;18.55;;
53010;SDS011;42803;55.762;38.084;2023-09-18T04:39:03;35.22;;;17.92;;
53010;SDS011;42803;55.762;38.084;2023-09-18T04:41:33;35.20;;;16.52;;
53010;SDS011;42803;55.762;38.084;2023-09-18T04:44:05;35.17;;;16.38;;
53010;SDS011;42803;55.762;38.084;2023-09-18T04:46:36;35.67;;;15.30;;
53010;SDS011;42803;55.762;38.084;2023-09-18T04:49:06;32.38;;;14.23;;
53010;SDS011;42803;55.762;38.084;2023-09-18T04:51:38;27.25;;;13.95;;
53010;SDS011;42803;55.762;38.084;2023-09-18T04:54:09;26.40;;;12.90;;
53010;SDS011;42803;55.762;38.084;2023-09-18T04:56:38;32.55;;;13.57;;
53010;SDS011;42803;55.762;38.084;2023-09-18T04:59:08;28.02;;;12.93;;
53010;SDS011;42803;55.762;38.084;2023-09-18T05:01:39;27.98;;;12.93;;
53010;SDS011;42803;55.762;38.084;2023-09-18T05:04:08;22.77;;;11.70;;
53010;SDS011;42803;55.762;38.084;2023-09-18T05:06:38;33.58;;;14.13;;
53010;SDS011;42803;55.762;38.084;2023-09-18T05:09:09;24.83;;;12.82;;
53010;SDS011;42803;55.762;38.084;2023-09-18T05:11:39;21.83;;;12.63;;
53010;SDS011;42803;55.762;38.084;2023-09-18T05:14:10;23.83;;;12.15;;
53010;SDS011;42803;55.762;38.084;2023-09-18T05:16:41;23.60;;;12.55;;
53010;SDS011;42803;55.762;38.084;2023-09-18T05:19:11;18.75;;;11.00;;
53010;SDS011;42803;55.762;38.084;2023-09-18T05:21:40;22.42;;;10.20;;
53010;SDS011;42803;55.762;38.084;2023-09-18T05:24:09;21.65;;;10.48;;
53010;SDS011;42803;55.762;38.084;2023-09-18T05:26:38;16.52;;;8.40;;
53010;SDS011;42803;55.762;38.084;2023-09-18T05:29:07;20.85;;;9.50;;
53010;SDS011;42803;55.762;38.084;2023-09-18T05:31:37;18.45;;;7.90;;
53010;SDS011;42803;55.762;38.084;2023-09-18T05:34:08;14.90;;;7.40;;
53010;SDS011;42803;55.762;38.084;2023-09-18T05:36:37;17.95;;;8.20;;
53010;SDS011;42803;55.762;38.084;2023-09-18T05:39:06;14.43;;;7.03;;
53010;SDS011;42803;55.762;38.084;2023-09-18T05:41:37;11.90;;;6.30;;
53010;SDS011;42803;55.762;38.084;2023-09-18T05:44:07;13.13;;;6.20;;
53010;SDS011;42803;55.762;38.084;2023-09-18T05:46:36;8.75;;;5.28;;
53010;SDS011;42803;55.762;38.084;2023-09-18T05:49:05;10.15;;;6.72;;
53010;SDS011;42803;55.762;38.084;2023-09-18T05:51:37;8.48;;;4.93;;
53010;SDS011;42803;55.762;38.084;2023-09-18T05:54:06;7.72;;;5.55;;
53010;SDS011;42803;55.762;38.084;2023-09-18T05:56:36;8.82;;;5.18;;
53010;SDS011;42803;55.762;38.084;2023-09-18T05:59:05;8.77;;;5.50;;
53010;SDS011;42803;55.762;38.084;2023-09-18T06:01:38;10.85;;;4.95;;
53010;SDS011;42803;55.762;38.084;2023-09-18T06:04:09;10.10;;;5.05;;
53010;SDS011;42803;55.762;38.084;2023-09-18T06:06:40;6.60;;;4.13;;
53010;SDS011;42803;55.762;38.084;2023-09-18T06:09:09;7.45;;;4.78;;
53010;SDS011;42803;55.762;38.084;2023-09-18T06:11:38;8.93;;;5.10;;
53010;SDS011;42803;55.762;38.084;2023-09-18T06:14:07;7.65;;;4.95;;
53010;SDS011;42803;55.762;38.084;2023-09-18T06:16:37;7.40;;;4.45;;
53010;SDS011;42803;55.762;38.084;2023-09-18T06:19:06;5.72;;;4.13;;
53010;SDS011;42803;55.762;38.084;2023-09-18T06:21:36;9.02;;;5.30;;
53010;SDS011;42803;55.762;38.084;2023-09-18T06:24:06;8.85;;;4.40;;
53010;SDS011;42803;55.762;38.084;2023-09-18T06:26:35;4.65;;;3.53;;
53010;SDS011;42803;55.762;38.084;2023-09-18T06:29:05;9.00;;;4.57;;
53010;SDS011;42803;55.762;38.084;2023-09-18T06:31:36;7.88;;;4.88;;
53010;SDS011;42803;55.762;38.084;2023-09-18T06:34:05;7.78;;;4.72;;
53010;SDS011;42803;55.762;38.084;2023-09-18T06:36:36;6.93;;;4.22;;
53010;SDS011;42803;55.762;38.084;2023-09-18T06:39:06;9.07;;;4.90;;
53010;SDS011;42803;55.762;38.084;2023-09-18T06:41:35;8.65;;;5.05;;
53010;SDS011;42803;55.762;38.084;2023-09-18T06:44:05;8.95;;;5.25;;
53010;SDS011;42803;55.762;38.084;2023-09-18T06:46:35;8.00;;;4.95;;
53010;SDS011;42803;55.762;38.084;2023-09-18T06:49:04;7.25;;;4.47;;
53010;SDS011;42803;55.762;38.084;2023-09-18T06:51:33;7.82;;;3.97;;
53010;SDS011;42803;55.762;38.084;2023-09-18T06:54:11;6.68;;;4.50;;
53010;SDS011;42803;55.762;38.084;2023-09-18T06:56:42;8.50;;;5.45;;
53010;SDS011;42803;55.762;38.084;2023-09-18T06:59:12;9.35;;;4.57;;
53010;SDS011;42803;55.762;38.084;2023-09-18T07:01:42;9.35;;;4.10;;
53010;SDS011;42803;55.762;38.084;2023-09-18T07:04:13;6.43;;;4.45;;
53010;SDS011;42803;55.762;38.084;2023-09-18T07:06:46;6.35;;;4.40;;
53010;SDS011;42803;55.762;38.084;2023-09-18T07:09:17;8.73;;;4.72;;
53010;SDS011;42803;55.762;38.084;2023-09-18T07:11:47;6.05;;;4.38;;
53010;SDS011;42803;55.762;38.084;2023-09-18T07:14:16;9.55;;;5.18;;
53010;SDS011;42803;55.762;38.084;2023-09-18T07:16:45;7.30;;;3.65;;
53010;SDS011;42803;55.762;38.084;2023-09-18T07:19:14;6.75;;;4.45;;
53010;SDS011;42803;55.762;38.084;2023-09-18T07:21:44;8.32;;;4.85;;
53010;SDS011;42803;55.762;38.084;2023-09-18T07:24:14;7.68;;;4.65;;
53010;SDS011;42803;55.762;38.084;2023-09-18T07:26:46;8.65;;;4.00;;
53010;SDS011;42803;55.762;38.084;2023-09-18T07:29:17;8.27;;;4.03;;
53010;SDS011;42803;55.762;38.084;2023-09-18T07:31:47;5.03;;;3.58;;
53010;SDS011;42803;55.762;38.084;2023-09-18T07:34:16;8.07;;;4.35;;
53010;SDS011;42803;55.762;38.084;2023-09-18T07:36:48;5.97;;;4.10;;
53010;SDS011;42803;55.762;38.084;2023-09-18T07:39:21;10.10;;;4.72;;
53010;SDS011;42803;55.762;38.084;2023-09-18T07:41:52;7.07;;;4.40;;
53010;SDS011;42803;55.762;38.084;2023-09-18T07:44:23;10.15;;;4.75;;
53010;SDS011;42803;55.762;38.084;2023-09-18T07:46:53;6.35;;;4.57;;
53010;SDS011;42803;55.762;38.084;2023-09-18T07:49:22;10.88;;;4.30;;
53010;SDS011;42803;55.762;38.084;2023-09-18T07:51:51;6.88;;;3.85;;
53010;SDS011;42803;55.762;38.084;2023-09-18T07:54:20;6.63;;;3.70;;
53010;SDS011;42803;55.762;38.084;2023-09-18T07:56:49;7.88;;;3.78;;
53010;SDS011;42803;55.762;38.084;2023-09-18T07:59:20;7.28;;;4.30;;
53010;SDS011;42803;55.762;38.084;2023-09-18T08:01:53;5.85;;;3.85;;
53010;SDS011;42803;55.762;38.084;2023-09-18T08:04:23;9.50;;;5.03;;
53010;SDS011;42803;55.762;38.084;2023-09-18T08:06:52;8.88;;;4.50;;
53010;SDS011;42803;55.762;38.084;2023-09-18T08:09:21;7.00;;;4.40;;
53010;SDS011;42803;55.762;38.084;2023-09-18T08:11:50;8.45;;;4.53;;
53010;SDS011;42803;55.762;38.084;2023-09-18T08:14:24;8.75;;;4.65;;
53010;SDS011;42803;55.762;38.084;2023-09-18T08:16:56;11.10;;;4.88;;
53010;SDS011;42803;55.762;38.084;2023-09-18T08:19:25;11.70;;;5.55;;
53010;SDS011;42803;55.762;38.084;2023-09-18T08:21:55;9.00;;;5.47;;
53010;SDS011;42803;55.762;38.084;2023-09-18T08:24:24;9.10;;;5.32;;
53010;SDS011;42803;55.762;38.084;2023-09-18T08:26:54;9.88;;;5.07;;
53010;SDS011;42803;55.762;38.084;2023-09-18T08:29:24;9.05;;;4.13;;
53010;SDS011;42803;55.762;38.084;2023-09-18T08:31:54;6.20;;;4.40;;
53010;SDS011;42803;55.762;38.084;2023-09-18T08:34:23;6.80;;;4.63;;
53010;SDS011;42803;55.762;38.084;2023-09-18T08:36:56;12.30;;;5.43;;
53010;SDS011;42803;55.762;38.084;2023-09-18T08:39:25;10.50;;;5.38;;
53010;SDS011;42803;55.762;38.084;2023-09-18T08:41:55;9.95;;;4.90;;
53010;SDS011;42803;55.762;38.084;2023-09-18T08:44:29;9.57;;;5.30;;
53010;SDS011;42803;55.762;38.084;2023-09-18T08:46:59;9.18;;;5.18;;
53010;SDS011;42803;55.762;38.084;2023-09-18T08:49:30;8.30;;;5.03;;
53010;SDS011;42803;55.762;38.084;2023-09-18T08:52:01;14.02;;;5.72;;
53010;SDS011;42803;55.762;38.084;2023-09-18T08:54:31;9.55;;;5.57;;
53010;SDS011;42803;55.762;38.084;2023-09-18T08:57:01;7.30;;;4.45;;
53010;SDS011;42803;55.762;38.084;2023-09-18T08:59:36;10.95;;;4.95;;
53010;SDS011;42803;55.762;38.084;2023-09-18T09:02:08;8.27;;;5.10;;
53010;SDS011;42803;55.762;38.084;2023-09-18T09:04:41;8.70;;;4.85;;
53010;SDS011;42803;55.762;38.084;2023-09-18T09:07:11;8.98;;;4.50;;
53010;SDS011;42803;55.762;38.084;2023-09-18T09:09:40;6.13;;;4.32;;
53010;SDS011;42803;55.762;38.084;2023-09-18T09:12:13;11.63;;;4.10;;
53010;SDS011;42803;55.762;38.084;2023-09-18T09:14:47;4.68;;;3.50;;
53010;SDS011;42803;55.762;38.084;2023-09-18T09:17:32;6.95;;;4.30;;
53010;SDS011;42803;55.762;38.084;2023-09-18T09:20:08;6.63;;;4.38;;
53010;SDS011;42803;55.762;38.084;2023-09-18T09:22:39;9.38;;;4.80;;
53010;SDS011;42803;55.762;38.084;2023-09-18T09:25:25;7.80;;;4.57;;
53010;SDS011;42803;55.762;38.084;2023-09-18T09:27:59;8.00;;;4.70;;
53010;SDS011;42803;55.762;38.084;2023-09-18T09:30:30;8.30;;;4.70;;
53010;SDS011;42803;55.762;38.084;2023-09-18T09:33:02;6.28;;;4.05;;
53010;SDS011;42803;55.762;38.084;2023-09-18T09:35:34;5.80;;;3.75;;
53010;SDS011;42803;55.762;38.084;2023-09-18T09:38:07;8.65;;;4.72;;
53010;SDS011;42803;55.762;38.084;2023-09-18T09:40:39;7.93;;;4.45;;
53010;SDS011;42803;55.762;38.084;2023-09-18T09:43:11;7.43;;;4.53;;
53010;SDS011;42803;55.762;38.084;2023-09-18T09:45:44;8.43;;;4.40;;
53010;SDS011;42803;55.762;38.084;2023-09-18T09:48:15;5.70;;;4.25;;
53010;SDS011;42803;55.762;38.084;2023-09-18T09:50:44;9.68;;;4.50;;
53010;SDS011;42803;55.762;38.084;2023-09-18T09:53:16;7.03;;;4.97;;
53010;SDS011;42803;55.762;38.084;2023-09-18T09:55:51;6.45;;;4.60;;
53010;SDS011;42803;55.762;38.084;2023-09-18T09:58:26;7.47;;;4.72;;
53010;SDS011;42803;55.762;38.084;2023-09-18T10:01:03;8.82;;;5.47;;
53010;SDS011;42803;55.762;38.084;2023-09-18T10:03:39;8.63;;;5.13;;
53010;SDS011;42803;55.762;38.084;2023-09-18T10:06:11;7.68;;;5.15;;
53010;SDS011;42803;55.762;38.084;2023-09-18T10:08:45;9.60;;;5.43;;
53010;SDS011;42803;55.762;38.084;2023-09-18T10:11:15;9.73;;;5.40;;
53010;SDS011;42803;55.762;38.084;2023-09-18T10:13:51;10.23;;;5.80;;
53010;SDS011;42803;55.762;38.084;2023-09-18T10:16:26;10.13;;;5.65;;
53010;SDS011;42803;55.762;38.084;2023-09-18T10:19:02;12.80;;;5.90;;
53010;SDS011;42803;55.762;38.084;2023-09-18T10:21:38;12.50;;;5.55;;
53010;SDS011;42803;55.762;38.084;2023-09-18T10:24:17;9.77;;;5.30;;
53010;SDS011;42803;55.762;38.084;2023-09-18T10:26:51;10.25;;;5.68;;
53010;SDS011;42803;55.762;38.084;2023-09-18T10:29:26;9.32;;;6.00;;
53010;SDS011;42803;55.762;38.084;2023-09-18T10:32:07;9.07;;;5.38;;
53010;SDS011;42803;55.762;38.084;2023-09-18T10:34:38;10.38;;;6.00;;
53010;SDS011;42803;55.762;38.084;2023-09-18T10:37:08;8.52;;;5.32;;
53010;SDS011;42803;55.762;38.084;2023-09-18T10:39:39;8.98;;;6.07;;
53010;SDS011;42803;55.762;38.084;2023-09-18T10:42:11;7.53;;;4.93;;
53010;SDS011;42803;55.762;38.084;2023-09-18T10:44:43;7.85;;;5.00;;
53010;SDS011;42803;55.762;38.084;2023-09-18T10:47:15;8.50;;;5.40;;
53010;SDS011;42803;55.762;38.084;2023-09-18T10:49:47;7.47;;;5.20;;
53010;SDS011;42803;55.762;38.084;2023-09-18T10:52:30;7.97;;;5.63;;
53010;SDS011;42803;55.762;38.084;2023-09-18T10:55:00;8.30;;;5.45;;
53010;SDS011;42803;55.762;38.084;2023-09-18T10:57:33;8.38;;;5.50;;
53010;SDS011;42803;55.762;38.084;2023-09-18T11:00:07;10.13;;;5.75;;
53010;SDS011;42803;55.762;38.084;2023-09-18T11:02:48;8.18;;;4.65;;
53010;SDS011;42803;55.762;38.084;2023-09-18T11:05:29;8.38;;;5.43;;
53010;SDS011;42803;55.762;38.084;2023-09-18T11:11:06;6.05;;;4.38;;
53010;SDS011;42803;55.762;38.084;2023-09-18T11:13:39;8.10;;;4.50;;
53010;SDS011;42803;55.762;38.084;2023-09-18T11:16:32;8.07;;;4.70;;
53010;SDS011;42803;55.762;38.084;2023-09-18T11:19:11;5.80;;;4.25;;
53010;SDS011;42803;55.762;38.084;2023-09-18T11:21:45;6.20;;;5.13;;
53010;SDS011;42803;55.762;38.084;2023-09-18T11:24:15;9.68;;;5.18;;
53010;SDS011;42803;55.762;38.084;2023-09-18T11:26:49;6.07;;;4.80;;
53010;SDS011;42803;55.762;38.084;2023-09-18T11:29:21;7.68;;;4.68;;
53010;SDS011;42803;55.762;38.084;2023-09-18T11:31:54;5.72;;;4.97;;
53010;SDS011;42803;55.762;38.084;2023-09-18T11:34:34;7.57;;;4.60;;
53010;SDS011;42803;55.762;38.084;2023-09-18T11:37:19;9.23;;;5.03;;
53010;SDS011;42803;55.762;38.084;2023-09-18T11:39:49;8.77;;;4.65;;
53010;SDS011;42803;55.762;38.084;2023-09-18T11:42:21;6.15;;;4.10;;
53010;SDS011;42803;55.762;38.084;2023-09-18T11:44:56;8.25;;;3.95;;
53010;SDS011;42803;55.762;38.084;2023-09-18T11:47:31;5.45;;;3.92;;
53010;SDS011;42803;55.762;38.084;2023-09-18T11:50:09;6.15;;;3.97;;
53010;SDS011;42803;55.762;38.084;2023-09-18T11:52:49;6.65;;;4.20;;
53010;SDS011;42803;55.762;38.084;2023-09-18T11:55:19;10.85;;;5.57;;
53010;SDS011;42803;55.762;38.084;2023-09-18T11:57:52;5.47;;;3.55;;
53010;SDS011;42803;55.762;38.084;2023-09-18T12:00:26;5.82;;;3.65;;
53010;SDS011;42803;55.762;38.084;2023-09-18T12:02:58;9.18;;;4.78;;
53010;SDS011;42803;55.762;38.084;2023-09-18T12:05:46;6.53;;;4.20;;
53010;SDS011;42803;55.762;38.084;2023-09-18T12:08:17;7.35;;;4.60;;
53010;SDS011;42803;55.762;38.084;2023-09-18T12:10:50;6.10;;;4.22;;
53010;SDS011;42803;55.762;38.084;2023-09-18T12:13:24;5.88;;;4.38;;
53010;SDS011;42803;55.762;38.084;2023-09-18T12:16:00;7.88;;;5.07;;
53010;SDS011;42803;55.762;38.084;2023-09-18T12:18:33;6.55;;;4.20;;
53010;SDS011;42803;55.762;38.084;2023-09-18T12:21:07;6.45;;;4.38;;
53010;SDS011;42803;55.762;38.084;2023-09-18T12:23:46;6.90;;;4.35;;
53010;SDS011;42803;55.762;38.084;2023-09-18T12:26:18;7.25;;;4.13;;
53010;SDS011;42803;55.762;38.084;2023-09-18T12:28:48;6.40;;;3.70;;
53010;SDS011;42803;55.762;38.084;2023-09-18T12:31:21;10.27;;;4.00;;
53010;SDS011;42803;55.762;38.084;2023-09-18T12:33:52;6.75;;;4.15;;
53010;SDS011;42803;55.762;38.084;2023-09-18T12:36:26;6.47;;;3.88;;
53010;SDS011;42803;55.762;38.084;2023-09-18T12:39:05;5.88;;;3.80;;
53010;SDS011;42803;55.762;38.084;2023-09-18T12:41:35;6.43;;;3.88;;
53010;SDS011;42803;55.762;38.084;2023-09-18T12:44:06;7.50;;;4.15;;
53010;SDS011;42803;55.762;38.084;2023-09-18T12:46:37;7.10;;;4.30;;
53010;SDS011;42803;55.762;38.084;2023-09-18T12:49:17;6.60;;;4.05;;
53010;SDS011;42803;55.762;38.084;2023-09-18T12:51:59;6.90;;;4.38;;
53010;SDS011;42803;55.762;38.084;2023-09-18T12:54:39;5.67;;;4.00;;
53010;SDS011;42803;55.762;38.084;2023-09-18T12:57:09;6.55;;;4.30;;
53010;SDS011;42803;55.762;38.084;2023-09-18T12:59:45;7.90;;;4.50;;
53010;SDS011;42803;55.762;38.084;2023-09-18T13:02:18;6.43;;;4.38;;
53010;SDS011;42803;55.762;38.084;2023-09-18T13:04:56;6.43;;;4.53;;
53010;SDS011;42803;55.762;38.084;2023-09-18T13:07:31;8.13;;;4.32;;
53010;SDS011;42803;55.762;38.084;2023-09-18T13:10:12;7.85;;;4.22;;
53010;SDS011;42803;55.762;38.084;2023-09-18T13:12:46;5.93;;;4.55;;
53010;SDS011;42803;55.762;38.084;2023-09-18T13:15:28;7.47;;;4.20;;
53010;SDS011;42803;55.762;38.084;2023-09-18T13:18:00;6.85;;;4.38;;
53010;SDS011;42803;55.762;38.084;2023-09-18T13:20:32;8.25;;;4.95;;
53010;SDS011;42803;55.762;38.084;2023-09-18T13:23:04;6.25;;;4.05;;
53010;SDS011;42803;55.762;38.084;2023-09-18T13:25:35;7.68;;;4.82;;
53010;SDS011;42803;55.762;38.084;2023-09-18T13:28:06;5.72;;;4.70;;
53010;SDS011;42803;55.762;38.084;2023-09-18T13:30:38;6.32;;;4.22;;
53010;SDS011;42803;55.762;38.084;2023-09-18T13:33:11;9.35;;;4.65;;
53010;SDS011;42803;55.762;38.084;2023-09-18T13:35:53;7.45;;;4.85;;
53010;SDS011;42803;55.762;38.084;2023-09-18T13:38:27;7.78;;;4.68;;
53010;SDS011;42803;55.762;38.084;2023-09-18T13:40:57;7.15;;;5.18;;
53010;SDS011;42803;55.762;38.084;2023-09-18T13:43:26;6.80;;;4.50;;
53010;SDS011;42803;55.762;38.084;2023-09-18T13:46:00;8.20;;;5.00;;
53010;SDS011;42803;55.762;38.084;2023-09-18T13:48:33;5.43;;;4.22;;
53010;SDS011;42803;55.762;38.084;2023-09-18T13:51:06;7.38;;;4.15;;
53010;SDS011;42803;55.762;38.084;2023-09-18T13:53:39;8.05;;;4.85;;
53010;SDS011;42803;55.762;38.084;2023-09-18T13:56:10;7.50;;;4.75;;
53010;SDS011;42803;55.762;38.084;2023-09-18T13:58:40;7.65;;;5.07;;
53010;SDS011;42803;55.762;38.084;2023-09-18T14:01:11;7.88;;;4.80;;
53010;SDS011;42803;55.762;38.084;2023-09-18T14:03:43;8.00;;;4.32;;
53010;SDS011;42803;55.762;38.084;2023-09-18T14:06:13;8.70;;;4.80;;
53010;SDS011;42803;55.762;38.084;2023-09-18T14:08:50;6.70;;;4.03;;
53010;SDS011;42803;55.762;38.084;2023-09-18T14:11:20;11.02;;;4.50;;
53010;SDS011;42803;55.762;38.084;2023-09-18T14:13:49;5.65;;;4.30;;
53010;SDS011;42803;55.762;38.084;2023-09-18T14:16:19;7.82;;;4.47;;
53010;SDS011;42803;55.762;38.084;2023-09-18T14:18:54;8.75;;;4.57;;
53010;SDS011;42803;55.762;38.084;2023-09-18T14:21:24;6.40;;;4.15;;
53010;SDS011;42803;55.762;38.084;2023-09-18T14:23:58;6.45;;;4.03;;
53010;SDS011;42803;55.762;38.084;2023-09-18T14:26:28;8.65;;;5.03;;
53010;SDS011;42803;55.762;38.084;2023-09-18T14:28:57;8.98;;;4.60;;
53010;SDS011;42803;55.762;38.084;2023-09-18T14:31:27;5.38;;;4.07;;
53010;SDS011;42803;55.762;38.084;2023-09-18T14:33:57;6.32;;;4.13;;
53010;SDS011;42803;55.762;38.084;2023-09-18T14:36:27;6.20;;;4.75;;
53010;SDS011;42803;55.762;38.084;2023-09-18T14:39:00;7.80;;;4.20;;
53010;SDS011;42803;55.762;38.084;2023-09-18T14:41:30;5.82;;;3.92;;
53010;SDS011;42803;55.762;38.084;2023-09-18T14:44:00;7.63;;;4.30;;
53010;SDS011;42803;55.762;38.084;2023-09-18T14:46:30;7.22;;;5.00;;
53010;SDS011;42803;55.762;38.084;2023-09-18T14:49:01;9.52;;;6.10;;
53010;SDS011;42803;55.762;38.084;2023-09-18T14:51:31;12.63;;;6.28;;
53010;SDS011;42803;55.762;38.084;2023-09-18T14:54:02;8.65;;;5.28;;